SWA32 KSAN-KCOS
Flight info
| Callsign | SWA32 |
|---|---|
| Flight time | 1h 40m |
| Altitude | 37000 |
| Route | ZZOOO4 MTBAL LANCY J78 DRK ALS DBRY5 |
| Aircraft | B738/M-SDE2E3FGHIRWXY/LB1 |
Departure
| Time | 2026-04-25 19:13 |
|---|---|
| Airport | San Diego International Airport (KSAN) |
Arrival
| Time | 2026-04-25 20:54 |
|---|---|
| Airport | City of Colorado Springs Municipal Airport (KCOS) |
| Time | Latitude | Longitude | Altitude | Speed | Heading |
|---|---|---|---|---|---|
| 2026-04-25 18:47 | 32.73372 | -117.19782 | 24 ft | 0 kts | 268° |
| 2026-04-25 19:02 | 32.73372 | -117.19770 | 24 ft | 2 kts | 271° |
| 2026-04-25 19:02 | 32.73371 | -117.19750 | 29 ft | 2 kts | 278° |
| 2026-04-25 19:02 | 32.73368 | -117.19731 | 27 ft | 2 kts | 296° |
| 2026-04-25 19:03 | 32.73346 | -117.19716 | 24 ft | 2 kts | 10° |
| 2026-04-25 19:03 | 32.73341 | -117.19717 | 26 ft | 0 kts | 16° |
| 2026-04-25 19:07 | 32.73352 | -117.19713 | 27 ft | 1 kts | 18° |
| 2026-04-25 19:07 | 32.73363 | -117.19708 | 27 ft | 3 kts | 18° |
| 2026-04-25 19:08 | 32.73415 | -117.19671 | 27 ft | 5 kts | 63° |
| 2026-04-25 19:08 | 32.73413 | -117.19632 | 25 ft | 5 kts | 104° |
| 2026-04-25 19:09 | 32.73376 | -117.19472 | 27 ft | 9 kts | 105° |
| 2026-04-25 19:09 | 32.73363 | -117.19420 | 26 ft | 11 kts | 107° |
| 2026-04-25 19:09 | 32.73298 | -117.19156 | 27 ft | 16 kts | 106° |
| 2026-04-25 19:10 | 32.73269 | -117.19031 | 28 ft | 16 kts | 105° |
| 2026-04-25 19:10 | 32.73238 | -117.18903 | 28 ft | 17 kts | 107° |
| 2026-04-25 19:10 | 32.73205 | -117.18770 | 26 ft | 16 kts | 106° |
| 2026-04-25 19:10 | 32.73171 | -117.18633 | 30 ft | 18 kts | 106° |
| 2026-04-25 19:11 | 32.73133 | -117.18474 | 24 ft | 21 kts | 106° |
| 2026-04-25 19:11 | 32.73092 | -117.18305 | 23 ft | 22 kts | 106° |
| 2026-04-25 19:11 | 32.73050 | -117.18131 | 20 ft | 22 kts | 105° |
| 2026-04-25 19:11 | 32.73008 | -117.17962 | 20 ft | 21 kts | 105° |
| 2026-04-25 19:12 | 32.72969 | -117.17796 | 19 ft | 20 kts | 106° |
| 2026-04-25 19:12 | 32.72962 | -117.17635 | 22 ft | 20 kts | 66° |
| 2026-04-25 19:12 | 32.73027 | -117.17604 | 22 ft | 10 kts | 306° |
| 2026-04-25 19:12 | 32.73045 | -117.17683 | 23 ft | 10 kts | 285° |
| 2026-04-25 19:13 | 32.73132 | -117.18037 | 21 ft | 91 kts | 285° |
| 2026-04-25 19:13 | 32.73378 | -117.19077 | 26 ft | 169 kts | 284° |
| 2026-04-25 19:13 | 32.73762 | -117.20572 | 504 ft | 205 kts | 286° |
| 2026-04-25 19:13 | 32.74213 | -117.22320 | 1136 ft | 235 kts | 285° |
| 2026-04-25 19:14 | 32.74672 | -117.24250 | 1829 ft | 243 kts | 284° |
| 2026-04-25 19:14 | 32.74974 | -117.25569 | 2212 ft | 246 kts | 283° |
| 2026-04-25 19:14 | 32.75545 | -117.28212 | 2736 ft | 255 kts | 282° |
| 2026-04-25 19:14 | 32.75950 | -117.30260 | 3157 ft | 255 kts | 281° |
| 2026-04-25 19:15 | 32.76330 | -117.32345 | 3383 ft | 258 kts | 280° |
| 2026-04-25 19:15 | 32.76547 | -117.34427 | 3588 ft | 253 kts | 267° |
| 2026-04-25 19:15 | 32.76161 | -117.36439 | 3771 ft | 253 kts | 238° |
| 2026-04-25 19:15 | 32.74854 | -117.37772 | 4246 ft | 256 kts | 202° |
| 2026-04-25 19:16 | 32.73068 | -117.37917 | 4702 ft | 267 kts | 166° |
| 2026-04-25 19:16 | 32.71381 | -117.36966 | 5195 ft | 272 kts | 151° |
| 2026-04-25 19:16 | 32.69844 | -117.35623 | 5587 ft | 277 kts | 135° |
| 2026-04-25 19:16 | 32.68647 | -117.33837 | 6032 ft | 277 kts | 126° |
| 2026-04-25 19:17 | 32.67556 | -117.31948 | 6462 ft | 279 kts | 125° |
| 2026-04-25 19:17 | 32.66449 | -117.30049 | 6869 ft | 281 kts | 127° |
| 2026-04-25 19:17 | 32.65313 | -117.28152 | 7286 ft | 284 kts | 128° |
| 2026-04-25 19:17 | 32.64152 | -117.26241 | 7701 ft | 287 kts | 128° |
| 2026-04-25 19:18 | 32.63162 | -117.24159 | 8092 ft | 296 kts | 108° |
| 2026-04-25 19:18 | 32.62808 | -117.21736 | 8557 ft | 301 kts | 98° |
| 2026-04-25 19:18 | 32.62592 | -117.19252 | 8987 ft | 306 kts | 98° |
| 2026-04-25 19:18 | 32.62391 | -117.16724 | 9443 ft | 310 kts | 98° |
| 2026-04-25 19:19 | 32.62184 | -117.14162 | 9888 ft | 314 kts | 98° |
| 2026-04-25 19:19 | 32.61966 | -117.11559 | 10293 ft | 319 kts | 99° |
| 2026-04-25 19:19 | 32.61739 | -117.08928 | 10698 ft | 323 kts | 99° |
| 2026-04-25 19:19 | 32.61584 | -117.07167 | 10970 ft | 325 kts | 99° |
| 2026-04-25 19:20 | 32.61264 | -117.03572 | 11515 ft | 330 kts | 100° |
| 2026-04-25 19:20 | 32.61020 | -117.00851 | 11933 ft | 333 kts | 100° |
| 2026-04-25 19:20 | 32.60772 | -116.98106 | 12346 ft | 336 kts | 100° |
| 2026-04-25 19:20 | 32.60524 | -116.95377 | 12766 ft | 338 kts | 100° |
| 2026-04-25 19:21 | 32.60274 | -116.92554 | 13222 ft | 342 kts | 98° |
| 2026-04-25 19:21 | 32.61045 | -116.86918 | 14087 ft | 358 kts | 77° |
| 2026-04-25 19:21 | 32.61663 | -116.84044 | 14478 ft | 359 kts | 77° |
| 2026-04-25 19:22 | 32.62266 | -116.81145 | 14836 ft | 356 kts | 75° |
| 2026-04-25 19:22 | 32.63278 | -116.78523 | 15207 ft | 356 kts | 51° |
| 2026-04-25 19:22 | 32.67240 | -116.75101 | 16106 ft | 358 kts | 18° |
| 2026-04-25 19:23 | 32.69544 | -116.73969 | 16545 ft | 358 kts | 16° |
| 2026-04-25 19:23 | 32.74297 | -116.71753 | 17452 ft | 380 kts | 16° |
| 2026-04-25 19:23 | 32.76799 | -116.70572 | 17904 ft | 394 kts | 17° |
| 2026-04-25 19:24 | 32.79381 | -116.69333 | 18371 ft | 406 kts | 17° |
| 2026-04-25 19:24 | 32.82038 | -116.68043 | 18774 ft | 418 kts | 18° |
| 2026-04-25 19:24 | 32.87553 | -116.65338 | 19591 ft | 439 kts | 18° |
| 2026-04-25 19:25 | 32.93306 | -116.62507 | 20411 ft | 455 kts | 18° |
| 2026-04-25 19:25 | 32.96253 | -116.61055 | 20838 ft | 462 kts | 18° |
| 2026-04-25 19:25 | 32.99245 | -116.59586 | 21240 ft | 467 kts | 18° |
| 2026-04-25 19:26 | 33.02262 | -116.58091 | 21672 ft | 472 kts | 19° |
| 2026-04-25 19:26 | 33.05295 | -116.56532 | 22108 ft | 476 kts | 20° |
| 2026-04-25 19:26 | 33.08332 | -116.54938 | 22547 ft | 479 kts | 20° |
| 2026-04-25 19:26 | 33.11386 | -116.53324 | 22991 ft | 481 kts | 20° |
| 2026-04-25 19:27 | 33.14456 | -116.51703 | 23447 ft | 484 kts | 20° |
| 2026-04-25 19:27 | 33.16498 | -116.50627 | 23705 ft | 485 kts | 20° |
| 2026-04-25 19:27 | 33.20649 | -116.48446 | 24213 ft | 488 kts | 19° |
| 2026-04-25 19:27 | 33.23765 | -116.46812 | 24604 ft | 490 kts | 19° |
| 2026-04-25 19:28 | 33.26891 | -116.45172 | 25000 ft | 492 kts | 19° |
| 2026-04-25 19:28 | 33.30028 | -116.43525 | 25402 ft | 493 kts | 19° |
| 2026-04-25 19:28 | 33.33170 | -116.41874 | 25801 ft | 494 kts | 19° |
| 2026-04-25 19:28 | 33.36321 | -116.40217 | 26215 ft | 495 kts | 19° |
| 2026-04-25 19:29 | 33.39367 | -116.38252 | 26606 ft | 504 kts | 32° |
| 2026-04-25 19:29 | 33.41921 | -116.35354 | 27029 ft | 511 kts | 50° |
| 2026-04-25 19:29 | 33.44025 | -116.31922 | 27496 ft | 512 kts | 53° |
| 2026-04-25 19:29 | 33.46051 | -116.28405 | 27923 ft | 513 kts | 54° |
| 2026-04-25 19:30 | 33.48066 | -116.24877 | 28323 ft | 514 kts | 53° |
| 2026-04-25 19:30 | 33.50071 | -116.21411 | 28768 ft | 514 kts | 53° |
| 2026-04-25 19:30 | 33.52131 | -116.17909 | 29212 ft | 514 kts | 52° |
| 2026-04-25 19:30 | 33.54205 | -116.14425 | 29695 ft | 513 kts | 52° |
| 2026-04-25 19:31 | 33.56284 | -116.10947 | 30131 ft | 514 kts | 52° |
| 2026-04-25 19:31 | 33.58363 | -116.07464 | 30533 ft | 514 kts | 52° |
| 2026-04-25 19:31 | 33.60407 | -116.03940 | 30935 ft | 515 kts | 57° |
| 2026-04-25 19:31 | 33.62044 | -116.00116 | 31338 ft | 516 kts | 65° |
| 2026-04-25 19:32 | 33.63452 | -115.96153 | 31751 ft | 517 kts | 68° |
| 2026-04-25 19:32 | 33.64788 | -115.92117 | 31835 ft | 525 kts | 69° |
| 2026-04-25 19:32 | 33.66589 | -115.86589 | 31849 ft | 537 kts | 69° |
| 2026-04-25 19:33 | 33.68930 | -115.79579 | 31837 ft | 551 kts | 68° |
| 2026-04-25 19:33 | 33.70396 | -115.75303 | 31831 ft | 557 kts | 68° |
| 2026-04-25 19:33 | 33.73390 | -115.66699 | 31806 ft | 557 kts | 68° |
| 2026-04-25 19:34 | 33.76377 | -115.58138 | 31803 ft | 555 kts | 68° |
| 2026-04-25 19:34 | 33.79350 | -115.49570 | 31792 ft | 555 kts | 68° |
| 2026-04-25 19:35 | 33.82310 | -115.40995 | 31791 ft | 555 kts | 68° |
| 2026-04-25 19:35 | 33.85262 | -115.32417 | 31796 ft | 555 kts | 68° |
| 2026-04-25 19:36 | 33.88210 | -115.23828 | 31785 ft | 555 kts | 68° |
| 2026-04-25 19:36 | 33.91147 | -115.15250 | 31781 ft | 554 kts | 68° |
| 2026-04-25 19:37 | 33.94080 | -115.06662 | 31772 ft | 554 kts | 68° |
| 2026-04-25 19:37 | 33.97006 | -114.98070 | 31772 ft | 554 kts | 68° |
| 2026-04-25 19:38 | 33.99900 | -114.89547 | 31752 ft | 553 kts | 68° |
| 2026-04-25 19:38 | 34.02808 | -114.80962 | 31758 ft | 553 kts | 68° |
| 2026-04-25 19:39 | 34.05712 | -114.72365 | 31751 ft | 554 kts | 68° |
| 2026-04-25 19:39 | 34.08612 | -114.63754 | 31747 ft | 554 kts | 68° |
| 2026-04-25 19:40 | 34.11507 | -114.55137 | 31746 ft | 554 kts | 68° |
| 2026-04-25 19:40 | 34.14395 | -114.46514 | 31751 ft | 554 kts | 69° |
| 2026-04-25 19:41 | 34.17279 | -114.37880 | 31749 ft | 555 kts | 69° |
| 2026-04-25 19:41 | 34.19207 | -114.32096 | 31750 ft | 555 kts | 69° |
| 2026-04-25 19:42 | 34.23039 | -114.20564 | 31756 ft | 556 kts | 69° |
| 2026-04-25 19:42 | 34.25914 | -114.11885 | 31754 ft | 556 kts | 69° |
| 2026-04-25 19:43 | 34.28637 | -114.03130 | 31764 ft | 556 kts | 72° |
| 2026-04-25 19:43 | 34.31049 | -113.94239 | 31757 ft | 557 kts | 73° |
| 2026-04-25 19:44 | 34.33428 | -113.85314 | 31764 ft | 557 kts | 73° |
| 2026-04-25 19:44 | 34.35850 | -113.76400 | 31762 ft | 557 kts | 72° |
| 2026-04-25 19:45 | 34.38295 | -113.67491 | 31770 ft | 558 kts | 72° |
| 2026-04-25 19:45 | 34.40739 | -113.58577 | 31758 ft | 558 kts | 72° |
| 2026-04-25 19:46 | 34.42761 | -113.51164 | 31773 ft | 558 kts | 73° |
| 2026-04-25 19:46 | 34.45190 | -113.42220 | 31766 ft | 559 kts | 73° |
| 2026-04-25 19:47 | 34.47612 | -113.33273 | 31787 ft | 559 kts | 73° |
| 2026-04-25 19:47 | 34.50418 | -113.22870 | 31778 ft | 558 kts | 73° |
| 2026-04-25 19:48 | 34.52432 | -113.15383 | 31788 ft | 558 kts | 73° |
| 2026-04-25 19:48 | 34.54831 | -113.06433 | 31784 ft | 558 kts | 73° |
| 2026-04-25 19:49 | 34.56818 | -112.99000 | 31801 ft | 558 kts | 73° |
| 2026-04-25 19:49 | 34.59590 | -112.88596 | 31780 ft | 557 kts | 73° |
| 2026-04-25 19:50 | 34.63151 | -112.75165 | 31844 ft | 557 kts | 73° |
| 2026-04-25 19:51 | 34.65512 | -112.66227 | 31885 ft | 556 kts | 73° |
| 2026-04-25 19:51 | 34.67864 | -112.57290 | 31933 ft | 555 kts | 73° |
| 2026-04-25 19:52 | 34.70217 | -112.48367 | 31959 ft | 555 kts | 72° |
| 2026-04-25 19:52 | 34.73488 | -112.39857 | 31961 ft | 556 kts | 61° |
| 2026-04-25 19:53 | 34.77264 | -112.31649 | 31932 ft | 556 kts | 60° |
| 2026-04-25 19:53 | 34.81026 | -112.23425 | 31866 ft | 556 kts | 61° |
| 2026-04-25 19:54 | 34.84683 | -112.15134 | 31827 ft | 556 kts | 62° |
| 2026-04-25 19:54 | 34.88285 | -112.06810 | 31835 ft | 556 kts | 62° |
| 2026-04-25 19:55 | 34.91881 | -111.98466 | 31884 ft | 556 kts | 62° |
| 2026-04-25 19:55 | 34.95478 | -111.90119 | 31920 ft | 556 kts | 62° |
| 2026-04-25 19:56 | 34.99077 | -111.81767 | 31882 ft | 555 kts | 62° |
| 2026-04-25 19:56 | 35.02669 | -111.73411 | 31931 ft | 556 kts | 62° |
| 2026-04-25 19:57 | 35.06245 | -111.65064 | 31975 ft | 554 kts | 62° |
| 2026-04-25 19:57 | 35.09810 | -111.56726 | 31975 ft | 553 kts | 62° |
| 2026-04-25 19:58 | 35.13355 | -111.48413 | 31933 ft | 551 kts | 62° |
| 2026-04-25 19:58 | 35.16885 | -111.40115 | 31883 ft | 549 kts | 62° |
| 2026-04-25 19:59 | 35.20402 | -111.31830 | 31824 ft | 549 kts | 62° |
| 2026-04-25 19:59 | 35.23915 | -111.23531 | 31766 ft | 550 kts | 62° |
| 2026-04-25 20:00 | 35.27425 | -111.15220 | 31761 ft | 550 kts | 62° |
| 2026-04-25 20:00 | 35.30912 | -111.06943 | 31756 ft | 551 kts | 62° |
| 2026-04-25 20:01 | 35.36172 | -110.94417 | 31761 ft | 552 kts | 62° |
| 2026-04-25 20:01 | 35.39681 | -110.86033 | 31758 ft | 553 kts | 62° |
| 2026-04-25 20:02 | 35.43189 | -110.77632 | 31752 ft | 554 kts | 62° |
| 2026-04-25 20:02 | 35.46696 | -110.69212 | 31749 ft | 554 kts | 62° |
| 2026-04-25 20:03 | 35.50199 | -110.60780 | 31744 ft | 555 kts | 62° |
| 2026-04-25 20:03 | 35.53697 | -110.52339 | 31733 ft | 555 kts | 62° |
| 2026-04-25 20:04 | 35.57190 | -110.43888 | 31741 ft | 555 kts | 62° |
| 2026-04-25 20:04 | 35.60675 | -110.35435 | 31739 ft | 554 kts | 62° |
| 2026-04-25 20:05 | 35.64128 | -110.27039 | 31734 ft | 554 kts | 62° |
| 2026-04-25 20:05 | 35.67599 | -110.18576 | 31739 ft | 554 kts | 62° |
| 2026-04-25 20:06 | 35.71063 | -110.10109 | 31732 ft | 554 kts | 62° |
| 2026-04-25 20:06 | 35.74517 | -110.01642 | 31731 ft | 553 kts | 62° |
| 2026-04-25 20:07 | 35.77967 | -109.93167 | 31736 ft | 553 kts | 62° |
| 2026-04-25 20:07 | 35.81407 | -109.84692 | 31735 ft | 553 kts | 62° |
| 2026-04-25 20:08 | 35.84844 | -109.76204 | 31724 ft | 553 kts | 62° |
| 2026-04-25 20:08 | 35.88274 | -109.67710 | 31724 ft | 554 kts | 62° |
| 2026-04-25 20:09 | 35.91703 | -109.59198 | 31723 ft | 554 kts | 62° |
| 2026-04-25 20:09 | 35.95129 | -109.50670 | 31717 ft | 554 kts | 62° |
| 2026-04-25 20:10 | 35.98526 | -109.42192 | 31725 ft | 555 kts | 62° |
| 2026-04-25 20:10 | 36.01942 | -109.33644 | 31722 ft | 555 kts | 62° |
| 2026-04-25 20:11 | 36.05354 | -109.25083 | 31742 ft | 555 kts | 62° |
| 2026-04-25 20:11 | 36.08761 | -109.16511 | 31725 ft | 556 kts | 62° |
| 2026-04-25 20:12 | 36.12165 | -109.07926 | 31723 ft | 556 kts | 62° |
| 2026-04-25 20:12 | 36.14437 | -109.02182 | 31718 ft | 555 kts | 62° |
| 2026-04-25 20:13 | 36.18948 | -108.90748 | 31705 ft | 555 kts | 62° |
| 2026-04-25 20:13 | 36.22329 | -108.82154 | 31715 ft | 555 kts | 62° |
| 2026-04-25 20:14 | 36.25712 | -108.73543 | 31717 ft | 556 kts | 62° |
| 2026-04-25 20:14 | 36.29098 | -108.64912 | 31712 ft | 556 kts | 62° |
| 2026-04-25 20:15 | 36.32446 | -108.56342 | 31701 ft | 556 kts | 62° |
| 2026-04-25 20:15 | 36.35809 | -108.47696 | 31707 ft | 556 kts | 62° |
| 2026-04-25 20:16 | 36.39169 | -108.39037 | 31703 ft | 557 kts | 62° |
| 2026-04-25 20:16 | 36.42524 | -108.30367 | 31736 ft | 557 kts | 62° |
| 2026-04-25 20:17 | 36.45866 | -108.21686 | 31755 ft | 557 kts | 62° |
| 2026-04-25 20:17 | 36.49203 | -108.13003 | 31788 ft | 557 kts | 62° |
| 2026-04-25 20:18 | 36.52535 | -108.04320 | 31793 ft | 557 kts | 62° |
| 2026-04-25 20:18 | 36.55860 | -107.95629 | 31772 ft | 556 kts | 62° |
| 2026-04-25 20:19 | 36.59176 | -107.86943 | 31750 ft | 555 kts | 62° |
| 2026-04-25 20:19 | 36.62476 | -107.78270 | 31752 ft | 554 kts | 62° |
| 2026-04-25 20:20 | 36.65744 | -107.69644 | 31747 ft | 554 kts | 62° |
| 2026-04-25 20:20 | 36.69029 | -107.60963 | 31748 ft | 554 kts | 62° |
| 2026-04-25 20:21 | 36.72315 | -107.52262 | 31739 ft | 554 kts | 62° |
| 2026-04-25 20:21 | 36.75584 | -107.43579 | 31730 ft | 553 kts | 62° |
| 2026-04-25 20:22 | 36.77767 | -107.37765 | 31746 ft | 553 kts | 62° |
| 2026-04-25 20:22 | 36.82102 | -107.26191 | 31752 ft | 553 kts | 62° |
| 2026-04-25 20:23 | 36.85354 | -107.17478 | 31756 ft | 553 kts | 62° |
| 2026-04-25 20:23 | 36.88594 | -107.08775 | 31768 ft | 553 kts | 62° |
| 2026-04-25 20:24 | 36.91832 | -107.00053 | 31778 ft | 553 kts | 62° |
| 2026-04-25 20:24 | 36.95060 | -106.91332 | 31780 ft | 552 kts | 63° |
| 2026-04-25 20:25 | 36.98270 | -106.82634 | 31795 ft | 550 kts | 63° |
| 2026-04-25 20:25 | 37.01466 | -106.73952 | 31800 ft | 549 kts | 63° |
| 2026-04-25 20:26 | 37.04649 | -106.65279 | 31817 ft | 548 kts | 63° |
| 2026-04-25 20:26 | 37.07821 | -106.56613 | 31809 ft | 547 kts | 63° |
| 2026-04-25 20:27 | 37.10964 | -106.48002 | 31806 ft | 546 kts | 63° |
| 2026-04-25 20:27 | 37.14110 | -106.39358 | 31802 ft | 544 kts | 63° |
| 2026-04-25 20:28 | 37.17242 | -106.30728 | 31796 ft | 543 kts | 63° |
| 2026-04-25 20:28 | 37.20363 | -106.22103 | 31786 ft | 543 kts | 63° |
| 2026-04-25 20:29 | 37.23474 | -106.13481 | 31812 ft | 542 kts | 63° |
| 2026-04-25 20:29 | 37.26577 | -106.04857 | 31835 ft | 542 kts | 63° |
| 2026-04-25 20:30 | 37.29671 | -105.96234 | 31867 ft | 542 kts | 63° |
| 2026-04-25 20:30 | 37.32761 | -105.87598 | 31892 ft | 542 kts | 63° |
| 2026-04-25 20:31 | 37.36259 | -105.79266 | 31877 ft | 535 kts | 46° |
| 2026-04-25 20:31 | 37.41163 | -105.72289 | 31888 ft | 532 kts | 43° |
| 2026-04-25 20:32 | 37.46126 | -105.65383 | 31856 ft | 533 kts | 44° |
| 2026-04-25 20:32 | 37.51035 | -105.58383 | 31818 ft | 533 kts | 45° |
| 2026-04-25 20:33 | 37.55869 | -105.51379 | 31792 ft | 533 kts | 45° |
| 2026-04-25 20:33 | 37.59112 | -105.46661 | 31746 ft | 531 kts | 45° |
| 2026-04-25 20:34 | 37.65548 | -105.37295 | 31744 ft | 531 kts | 45° |
| 2026-04-25 20:34 | 37.70384 | -105.30250 | 31608 ft | 530 kts | 45° |
| 2026-04-25 20:35 | 37.72789 | -105.26738 | 31139 ft | 527 kts | 45° |
| 2026-04-25 20:35 | 37.75168 | -105.23259 | 30512 ft | 518 kts | 45° |
| 2026-04-25 20:35 | 37.77497 | -105.19848 | 29907 ft | 507 kts | 45° |
| 2026-04-25 20:35 | 37.79775 | -105.16508 | 29170 ft | 497 kts | 45° |
| 2026-04-25 20:36 | 37.82007 | -105.13234 | 28439 ft | 487 kts | 45° |
| 2026-04-25 20:36 | 37.84198 | -105.10019 | 27722 ft | 478 kts | 45° |
| 2026-04-25 20:36 | 37.86346 | -105.06865 | 27034 ft | 470 kts | 45° |
| 2026-04-25 20:36 | 37.88462 | -105.03756 | 26347 ft | 463 kts | 45° |
| 2026-04-25 20:37 | 37.90545 | -105.00694 | 25687 ft | 456 kts | 45° |
| 2026-04-25 20:37 | 37.92599 | -104.97669 | 25042 ft | 449 kts | 45° |
| 2026-04-25 20:37 | 37.94620 | -104.94692 | 24402 ft | 443 kts | 45° |
| 2026-04-25 20:37 | 37.96616 | -104.91747 | 23782 ft | 438 kts | 45° |
| 2026-04-25 20:38 | 37.97925 | -104.89815 | 23388 ft | 434 kts | 45° |
| 2026-04-25 20:38 | 37.99879 | -104.86928 | 22674 ft | 429 kts | 45° |
| 2026-04-25 20:38 | 38.01808 | -104.84073 | 21964 ft | 423 kts | 45° |
| 2026-04-25 20:38 | 38.03710 | -104.81260 | 21268 ft | 417 kts | 46° |
| 2026-04-25 20:39 | 38.05583 | -104.78489 | 20611 ft | 410 kts | 46° |
| 2026-04-25 20:39 | 38.07424 | -104.75758 | 19956 ft | 404 kts | 46° |
| 2026-04-25 20:39 | 38.09237 | -104.73065 | 19323 ft | 398 kts | 47° |
| 2026-04-25 20:39 | 38.10447 | -104.71267 | 18899 ft | 395 kts | 47° |
| 2026-04-25 20:40 | 38.12816 | -104.67828 | 18074 ft | 386 kts | 41° |
| 2026-04-25 20:40 | 38.14991 | -104.65953 | 17361 ft | 374 kts | 20° |
| 2026-04-25 20:40 | 38.17419 | -104.65037 | 16961 ft | 355 kts | 2° |
| 2026-04-25 20:40 | 38.19918 | -104.64866 | 16901 ft | 369 kts | 356° |
| 2026-04-25 20:41 | 38.22510 | -104.64863 | 16835 ft | 370 kts | 355° |
| 2026-04-25 20:41 | 38.25058 | -104.64863 | 16827 ft | 364 kts | 355° |
| 2026-04-25 20:41 | 38.27601 | -104.64835 | 16832 ft | 366 kts | 356° |
| 2026-04-25 20:41 | 38.30151 | -104.64788 | 16825 ft | 366 kts | 356° |
| 2026-04-25 20:42 | 38.32698 | -104.64732 | 16809 ft | 366 kts | 356° |
| 2026-04-25 20:42 | 38.35239 | -104.64678 | 16823 ft | 365 kts | 356° |
| 2026-04-25 20:42 | 38.37774 | -104.64620 | 16808 ft | 364 kts | 356° |
| 2026-04-25 20:42 | 38.40279 | -104.64564 | 16817 ft | 364 kts | 356° |
| 2026-04-25 20:43 | 38.42808 | -104.64506 | 16808 ft | 364 kts | 356° |
| 2026-04-25 20:43 | 38.45337 | -104.64445 | 16819 ft | 364 kts | 356° |
| 2026-04-25 20:43 | 38.47879 | -104.64385 | 16662 ft | 365 kts | 356° |
| 2026-04-25 20:43 | 38.50412 | -104.64327 | 16283 ft | 363 kts | 356° |
| 2026-04-25 20:44 | 38.52926 | -104.64269 | 15761 ft | 358 kts | 356° |
| 2026-04-25 20:44 | 38.55383 | -104.64211 | 15238 ft | 348 kts | 356° |
| 2026-04-25 20:44 | 38.57771 | -104.64155 | 14788 ft | 338 kts | 356° |
| 2026-04-25 20:44 | 38.60086 | -104.64101 | 14393 ft | 328 kts | 356° |
| 2026-04-25 20:45 | 38.62340 | -104.64051 | 14032 ft | 321 kts | 356° |
| 2026-04-25 20:45 | 38.64566 | -104.64003 | 13641 ft | 319 kts | 356° |
| 2026-04-25 20:45 | 38.66774 | -104.63957 | 13247 ft | 316 kts | 356° |
| 2026-04-25 20:45 | 38.68967 | -104.63911 | 12817 ft | 315 kts | 357° |
| 2026-04-25 20:46 | 38.71154 | -104.63864 | 12405 ft | 314 kts | 357° |
| 2026-04-25 20:46 | 38.73344 | -104.63817 | 12031 ft | 315 kts | 358° |
| 2026-04-25 20:46 | 38.75538 | -104.63769 | 11640 ft | 315 kts | 358° |
| 2026-04-25 20:46 | 38.77675 | -104.63721 | 11291 ft | 299 kts | 359° |
| 2026-04-25 20:47 | 38.79705 | -104.63675 | 10897 ft | 284 kts | 359° |
| 2026-04-25 20:47 | 38.81630 | -104.63631 | 10517 ft | 270 kts | 0° |
| 2026-04-25 20:47 | 38.83467 | -104.63591 | 10110 ft | 259 kts | 1° |
| 2026-04-25 20:47 | 38.85229 | -104.63553 | 9820 ft | 246 kts | 2° |
| 2026-04-25 20:48 | 38.86899 | -104.63516 | 9554 ft | 234 kts | 2° |
| 2026-04-25 20:48 | 38.88495 | -104.63480 | 9328 ft | 225 kts | 2° |
| 2026-04-25 20:48 | 38.90060 | -104.63445 | 9075 ft | 224 kts | 2° |
| 2026-04-25 20:48 | 38.91584 | -104.63412 | 8922 ft | 213 kts | 2° |
| 2026-04-25 20:49 | 38.93028 | -104.63380 | 8880 ft | 207 kts | 2° |
| 2026-04-25 20:49 | 38.94459 | -104.63441 | 8850 ft | 210 kts | 346° |
| 2026-04-25 20:49 | 38.95630 | -104.64481 | 8631 ft | 206 kts | 297° |
| 2026-04-25 20:49 | 38.95835 | -104.66147 | 8392 ft | 185 kts | 250° |
| 2026-04-25 20:50 | 38.95253 | -104.67558 | 8045 ft | 174 kts | 225° |
| 2026-04-25 20:50 | 38.94355 | -104.68490 | 7752 ft | 163 kts | 203° |
| 2026-04-25 20:50 | 38.93264 | -104.68645 | 7457 ft | 161 kts | 175° |
| 2026-04-25 20:50 | 38.92123 | -104.68564 | 7281 ft | 162 kts | 178° |
| 2026-04-25 20:51 | 38.91046 | -104.68552 | 7055 ft | 146 kts | 178° |
| 2026-04-25 20:51 | 38.89936 | -104.68530 | 6990 ft | 177 kts | 178° |
| 2026-04-25 20:51 | 38.88848 | -104.68574 | 7112 ft | 161 kts | 180° |
| 2026-04-25 20:51 | 38.87742 | -104.68559 | 7039 ft | 154 kts | 178° |
| 2026-04-25 20:52 | 38.86670 | -104.68535 | 6895 ft | 160 kts | 180° |
| 2026-04-25 20:52 | 38.85934 | -104.68560 | 6819 ft | 159 kts | 178° |
| 2026-04-25 20:52 | 38.84430 | -104.68573 | 6733 ft | 154 kts | 177° |
| 2026-04-25 20:52 | 38.83426 | -104.68593 | 6594 ft | 138 kts | 175° |
| 2026-04-25 20:53 | 38.82484 | -104.68594 | 6394 ft | 134 kts | 174° |
| 2026-04-25 20:53 | 38.81553 | -104.68587 | 6227 ft | 132 kts | 174° |
| 2026-04-25 20:53 | 38.80709 | -104.68573 | 6190 ft | 108 kts | 181° |
| 2026-04-25 20:53 | 38.80056 | -104.68577 | 6194 ft | 76 kts | 180° |
| 2026-04-25 20:54 | 38.79565 | -104.68575 | 6191 ft | 65 kts | 180° |
| 2026-04-25 20:54 | 38.79249 | -104.68621 | 6191 ft | 37 kts | 206° |
| 2026-04-25 20:54 | 38.79140 | -104.68701 | 6192 ft | 0 kts | 209° |
| 2026-04-25 20:57 | 38.79138 | -104.68702 | 6192 ft | 4 kts | 209° |
| 2026-04-25 20:57 | 38.79117 | -104.68777 | 6193 ft | 15 kts | 307° |
| 2026-04-25 20:57 | 38.79163 | -104.68791 | 6193 ft | 6 kts | 1° |
| 2026-04-25 20:58 | 38.79209 | -104.68789 | 6192 ft | 7 kts | 0° |
| 2026-04-25 20:58 | 38.79266 | -104.68789 | 6192 ft | 9 kts | 0° |
| 2026-04-25 20:58 | 38.79330 | -104.68789 | 6192 ft | 10 kts | 0° |
| 2026-04-25 20:58 | 38.79413 | -104.68789 | 6192 ft | 13 kts | 359° |
| 2026-04-25 20:59 | 38.79510 | -104.68791 | 6192 ft | 15 kts | 359° |
| 2026-04-25 20:59 | 38.79621 | -104.68789 | 6192 ft | 17 kts | 0° |
| 2026-04-25 20:59 | 38.79739 | -104.68788 | 6193 ft | 17 kts | 359° |
| 2026-04-25 20:59 | 38.79852 | -104.68788 | 6193 ft | 16 kts | 1° |
| 2026-04-25 21:00 | 38.79962 | -104.68789 | 6193 ft | 15 kts | 0° |
| 2026-04-25 21:00 | 38.79997 | -104.68789 | 6193 ft | 15 kts | 0° |
| 2026-04-25 21:00 | 38.80262 | -104.68788 | 6193 ft | 13 kts | 350° |
| 2026-04-25 21:01 | 38.80269 | -104.68792 | 6193 ft | 0 kts | 334° |
| 2026-04-25 21:01 | 38.80273 | -104.68799 | 6192 ft | 3 kts | 304° |
| 2026-04-25 21:01 | 38.80279 | -104.68829 | 6193 ft | 4 kts | 269° |
| 2026-04-25 21:01 | 38.80278 | -104.68881 | 6193 ft | 7 kts | 268° |
| 2026-04-25 21:02 | 38.80279 | -104.68953 | 6193 ft | 9 kts | 272° |
| 2026-04-25 21:02 | 38.80280 | -104.69049 | 6193 ft | 12 kts | 269° |
| 2026-04-25 21:02 | 38.80280 | -104.69170 | 6193 ft | 15 kts | 270° |
| 2026-04-25 21:02 | 38.80279 | -104.69314 | 6193 ft | 17 kts | 269° |
| 2026-04-25 21:03 | 38.80279 | -104.69480 | 6193 ft | 20 kts | 271° |
| 2026-04-25 21:03 | 38.80279 | -104.69662 | 6193 ft | 20 kts | 265° |
| 2026-04-25 21:03 | 38.80166 | -104.69723 | 6193 ft | 20 kts | 179° |
| 2026-04-25 21:03 | 38.80078 | -104.69766 | 6192 ft | 8 kts | 255° |
| 2026-04-25 21:04 | 38.80076 | -104.69832 | 6193 ft | 7 kts | 270° |
| 2026-04-25 21:04 | 38.80074 | -104.69895 | 6193 ft | 7 kts | 258° |
| 2026-04-25 21:04 | 38.80041 | -104.69933 | 6193 ft | 7 kts | 191° |
| 2026-04-25 21:04 | 38.79992 | -104.69934 | 6193 ft | 7 kts | 178° |
| 2026-04-25 21:05 | 38.79968 | -104.69952 | 6193 ft | 0 kts | 237° |
| 2026-04-25 21:05 | 38.79969 | -104.69958 | 6193 ft | 2 kts | 273° |
| 2026-04-25 21:05 | 38.79975 | -104.70021 | 6193 ft | 2 kts | 268° |
| 2026-04-25 21:05 | 38.79974 | -104.70038 | 6193 ft | 0 kts | 265° |